<?xml version="1.0" encoding="UTF-8" standalone="no" ?>
<gpx xmlns="http://www.topografix.com/GPX/1/1" xmlns:xsi="http://www.w3.org/2001/XMLSchema-instance" xsi:schemaLocation="http://www.topografix.com/GPX/1/1 http://www.topografix.com/GPX/1/1/gpx.xsd" version="1.1" creator="VisuGPX - https://www.visugpx.com">
  <metadata>
    <name>GRPMelusine_J1_J4</name>
    <desc><![CDATA[gnerando idor: 13423745_12434211_12434219_12434226_12434235]]></desc>
  </metadata>
  <trk>
    <name><![CDATA[GRPMelusineJ2_RondeFougereChapelleLys_19.2km-12434219]]></name>
    <extensions>
      <line xmlns="http://www.topografix.com/GPX/gpx_style/0/2">
        <color>0000FF</color>
        <width>4</width>
      </line>
    </extensions>
    <trkseg>
      <trkpt lat="46.67188" lon="-0.7567">
        <ele>152</ele>
        <time>2023-10-30T09:47:56Z</time>
      </trkpt>
      <trkpt lat="46.67261" lon="-0.75567">
        <ele>158</ele>
        <time>2023-10-30T09:50:12Z</time>
      </trkpt>
      <trkpt lat="46.67306" lon="-0.75529">
        <ele>163</ele>
        <time>2023-10-30T09:51:21Z</time>
      </trkpt>
      <trkpt lat="46.67363" lon="-0.75453">
        <ele>168</ele>
        <time>2023-10-30T09:53:04Z</time>
      </trkpt>
      <trkpt lat="46.67394" lon="-0.75443">
        <ele>170</ele>
        <time>2023-10-30T09:53:46Z</time>
      </trkpt>
      <trkpt lat="46.67512" lon="-0.75432">
        <ele>175</ele>
        <time>2023-10-30T09:56:24Z</time>
      </trkpt>
      <trkpt lat="46.67447" lon="-0.75247">
        <ele>175</ele>
        <time>2023-10-30T09:59:35Z</time>
      </trkpt>
      <trkpt lat="46.67429" lon="-0.75213">
        <ele>176</ele>
        <time>2023-10-30T10:00:14Z</time>
      </trkpt>
      <trkpt lat="46.67113" lon="-0.74893">
        <ele>166</ele>
        <time>2023-10-30T10:08:47Z</time>
      </trkpt>
      <trkpt lat="46.67054" lon="-0.74784">
        <ele>163</ele>
        <time>2023-10-30T10:10:55Z</time>
      </trkpt>
      <trkpt lat="46.67247" lon="-0.74707">
        <ele>168</ele>
        <time>2023-10-30T10:15:22Z</time>
      </trkpt>
      <trkpt lat="46.67328" lon="-0.74694">
        <ele>173</ele>
        <time>2023-10-30T10:17:10Z</time>
      </trkpt>
      <trkpt lat="46.67397" lon="-0.74698">
        <ele>177</ele>
        <time>2023-10-30T10:18:42Z</time>
      </trkpt>
      <trkpt lat="46.67409" lon="-0.74625">
        <ele>180</ele>
        <time>2023-10-30T10:19:51Z</time>
      </trkpt>
      <trkpt lat="46.67571" lon="-0.74561">
        <ele>191</ele>
        <time>2023-10-30T10:23:35Z</time>
      </trkpt>
      <trkpt lat="46.67585" lon="-0.74567">
        <ele>191</ele>
        <time>2023-10-30T10:23:55Z</time>
      </trkpt>
      <trkpt lat="46.67653" lon="-0.74505">
        <ele>191</ele>
        <time>2023-10-30T10:25:42Z</time>
      </trkpt>
      <trkpt lat="46.6776" lon="-0.74505">
        <ele>190</ele>
        <time>2023-10-30T10:28:04Z</time>
      </trkpt>
      <trkpt lat="46.67803" lon="-0.74496">
        <ele>189</ele>
        <time>2023-10-30T10:29:02Z</time>
      </trkpt>
      <trkpt lat="46.67788" lon="-0.74406">
        <ele>186</ele>
        <time>2023-10-30T10:30:27Z</time>
      </trkpt>
      <trkpt lat="46.67793" lon="-0.7425">
        <ele>179</ele>
        <time>2023-10-30T10:32:50Z</time>
      </trkpt>
      <trkpt lat="46.67844" lon="-0.74097">
        <ele>180</ele>
        <time>2023-10-30T10:35:26Z</time>
      </trkpt>
      <trkpt lat="46.67846" lon="-0.74072">
        <ele>179</ele>
        <time>2023-10-30T10:35:49Z</time>
      </trkpt>
      <trkpt lat="46.67802" lon="-0.73971">
        <ele>173</ele>
        <time>2023-10-30T10:37:39Z</time>
      </trkpt>
      <trkpt lat="46.67864" lon="-0.739">
        <ele>175</ele>
        <time>2023-10-30T10:39:24Z</time>
      </trkpt>
      <trkpt lat="46.67889" lon="-0.73887">
        <ele>176</ele>
        <time>2023-10-30T10:39:59Z</time>
      </trkpt>
      <trkpt lat="46.67933" lon="-0.73853">
        <ele>176</ele>
        <time>2023-10-30T10:41:06Z</time>
      </trkpt>
      <trkpt lat="46.68209" lon="-0.73593">
        <ele>179</ele>
        <time>2023-10-30T10:48:24Z</time>
      </trkpt>
      <trkpt lat="46.68321" lon="-0.73582">
        <ele>181</ele>
        <time>2023-10-30T10:50:54Z</time>
      </trkpt>
      <trkpt lat="46.68326" lon="-0.73456">
        <ele>180</ele>
        <time>2023-10-30T10:52:49Z</time>
      </trkpt>
      <trkpt lat="46.68311" lon="-0.73421">
        <ele>180</ele>
        <time>2023-10-30T10:53:27Z</time>
      </trkpt>
      <trkpt lat="46.68326" lon="-0.73409">
        <ele>181</ele>
        <time>2023-10-30T10:53:50Z</time>
      </trkpt>
      <trkpt lat="46.68396" lon="-0.73415">
        <ele>182</ele>
        <time>2023-10-30T10:55:24Z</time>
      </trkpt>
      <trkpt lat="46.68405" lon="-0.73278">
        <ele>182</ele>
        <time>2023-10-30T10:57:30Z</time>
      </trkpt>
      <trkpt lat="46.68451" lon="-0.73256">
        <ele>183</ele>
        <time>2023-10-30T10:58:34Z</time>
      </trkpt>
      <trkpt lat="46.68486" lon="-0.73258">
        <ele>184</ele>
        <time>2023-10-30T10:59:21Z</time>
      </trkpt>
      <trkpt lat="46.68664" lon="-0.73125">
        <ele>198</ele>
        <time>2023-10-30T11:03:48Z</time>
      </trkpt>
      <trkpt lat="46.68745" lon="-0.73134">
        <ele>200</ele>
        <time>2023-10-30T11:05:36Z</time>
      </trkpt>
      <trkpt lat="46.68817" lon="-0.73117">
        <ele>198</ele>
        <time>2023-10-30T11:07:14Z</time>
      </trkpt>
      <trkpt lat="46.69057" lon="-0.72951">
        <ele>178</ele>
        <time>2023-10-30T11:13:08Z</time>
      </trkpt>
      <trkpt lat="46.68998" lon="-0.7267">
        <ele>182</ele>
        <time>2023-10-30T11:17:37Z</time>
      </trkpt>
      <trkpt lat="46.6895" lon="-0.72565">
        <ele>185</ele>
        <time>2023-10-30T11:19:33Z</time>
      </trkpt>
      <trkpt lat="46.68915" lon="-0.72548">
        <ele>187</ele>
        <time>2023-10-30T11:20:22Z</time>
      </trkpt>
      <trkpt lat="46.68873" lon="-0.7246">
        <ele>192</ele>
        <time>2023-10-30T11:22:00Z</time>
      </trkpt>
      <trkpt lat="46.68831" lon="-0.72391">
        <ele>192</ele>
        <time>2023-10-30T11:23:24Z</time>
      </trkpt>
      <trkpt lat="46.68763" lon="-0.72235">
        <ele>197</ele>
        <time>2023-10-30T11:26:14Z</time>
      </trkpt>
      <trkpt lat="46.68767" lon="-0.72183">
        <ele>197</ele>
        <time>2023-10-30T11:27:02Z</time>
      </trkpt>
      <trkpt lat="46.68728" lon="-0.72168">
        <ele>200</ele>
        <time>2023-10-30T11:27:55Z</time>
      </trkpt>
      <trkpt lat="46.68667" lon="-0.72181">
        <ele>205</ele>
        <time>2023-10-30T11:29:18Z</time>
      </trkpt>
      <trkpt lat="46.6861" lon="-0.72112">
        <ele>210</ele>
        <time>2023-10-30T11:30:57Z</time>
      </trkpt>
      <trkpt lat="46.68561" lon="-0.72125">
        <ele>213</ele>
        <time>2023-10-30T11:32:03Z</time>
      </trkpt>
      <trkpt lat="46.6851" lon="-0.72033">
        <ele>216</ele>
        <time>2023-10-30T11:33:51Z</time>
      </trkpt>
      <trkpt lat="46.68519" lon="-0.71982">
        <ele>216</ele>
        <time>2023-10-30T11:34:39Z</time>
      </trkpt>
      <trkpt lat="46.68578" lon="-0.71952">
        <ele>212</ele>
        <time>2023-10-30T11:36:03Z</time>
      </trkpt>
      <trkpt lat="46.68582" lon="-0.71906">
        <ele>211</ele>
        <time>2023-10-30T11:36:45Z</time>
      </trkpt>
      <trkpt lat="46.68625" lon="-0.71765">
        <ele>202</ele>
        <time>2023-10-30T11:39:07Z</time>
      </trkpt>
      <trkpt lat="46.68664" lon="-0.71707">
        <ele>200</ele>
        <time>2023-10-30T11:40:21Z</time>
      </trkpt>
      <trkpt lat="46.68666" lon="-0.71593">
        <ele>200</ele>
        <time>2023-10-30T11:42:05Z</time>
      </trkpt>
      <trkpt lat="46.68676" lon="-0.71505">
        <ele>200</ele>
        <time>2023-10-30T11:43:27Z</time>
      </trkpt>
      <trkpt lat="46.68695" lon="-0.71415">
        <ele>203</ele>
        <time>2023-10-30T11:44:53Z</time>
      </trkpt>
      <trkpt lat="46.68691" lon="-0.7131">
        <ele>204</ele>
        <time>2023-10-30T11:46:29Z</time>
      </trkpt>
      <trkpt lat="46.68654" lon="-0.71237">
        <ele>205</ele>
        <time>2023-10-30T11:47:53Z</time>
      </trkpt>
      <trkpt lat="46.68573" lon="-0.71089">
        <ele>202</ele>
        <time>2023-10-30T11:50:46Z</time>
      </trkpt>
      <trkpt lat="46.68526" lon="-0.70896">
        <ele>197</ele>
        <time>2023-10-30T11:53:53Z</time>
      </trkpt>
      <trkpt lat="46.68421" lon="-0.70907">
        <ele>192</ele>
        <time>2023-10-30T11:56:14Z</time>
      </trkpt>
      <trkpt lat="46.6831" lon="-0.70831">
        <ele>189</ele>
        <time>2023-10-30T11:58:57Z</time>
      </trkpt>
      <trkpt lat="46.68136" lon="-0.70778">
        <ele>184</ele>
        <time>2023-10-30T12:02:55Z</time>
      </trkpt>
      <trkpt lat="46.68023" lon="-0.7081">
        <ele>185</ele>
        <time>2023-10-30T12:05:28Z</time>
      </trkpt>
      <trkpt lat="46.67865" lon="-0.70844">
        <ele>181</ele>
        <time>2023-10-30T12:09:01Z</time>
      </trkpt>
      <trkpt lat="46.67815" lon="-0.70576">
        <ele>173</ele>
        <time>2023-10-30T12:13:16Z</time>
      </trkpt>
      <trkpt lat="46.67799" lon="-0.70535">
        <ele>175</ele>
        <time>2023-10-30T12:13:59Z</time>
      </trkpt>
      <trkpt lat="46.67738" lon="-0.70495">
        <ele>174</ele>
        <time>2023-10-30T12:15:28Z</time>
      </trkpt>
      <trkpt lat="46.67722" lon="-0.70503">
        <ele>173</ele>
        <time>2023-10-30T12:15:51Z</time>
      </trkpt>
      <trkpt lat="46.67682" lon="-0.70465">
        <ele>173</ele>
        <time>2023-10-30T12:16:54Z</time>
      </trkpt>
      <trkpt lat="46.67656" lon="-0.70426">
        <ele>173</ele>
        <time>2023-10-30T12:17:44Z</time>
      </trkpt>
      <trkpt lat="46.67627" lon="-0.70398">
        <ele>173</ele>
        <time>2023-10-30T12:18:31Z</time>
      </trkpt>
      <trkpt lat="46.67594" lon="-0.70555">
        <ele>177</ele>
        <time>2023-10-30T12:21:01Z</time>
      </trkpt>
      <trkpt lat="46.67535" lon="-0.70677">
        <ele>181</ele>
        <time>2023-10-30T12:23:18Z</time>
      </trkpt>
      <trkpt lat="46.67447" lon="-0.70728">
        <ele>180</ele>
        <time>2023-10-30T12:25:24Z</time>
      </trkpt>
      <trkpt lat="46.67316" lon="-0.70761">
        <ele>179</ele>
        <time>2023-10-30T12:28:21Z</time>
      </trkpt>
      <trkpt lat="46.67217" lon="-0.70801">
        <ele>186</ele>
        <time>2023-10-30T12:30:39Z</time>
      </trkpt>
      <trkpt lat="46.67052" lon="-0.70812">
        <ele>191</ele>
        <time>2023-10-30T12:34:19Z</time>
      </trkpt>
      <trkpt lat="46.66996" lon="-0.70645">
        <ele>192</ele>
        <time>2023-10-30T12:37:09Z</time>
      </trkpt>
      <trkpt lat="46.66912" lon="-0.70576">
        <ele>191</ele>
        <time>2023-10-30T12:39:18Z</time>
      </trkpt>
      <trkpt lat="46.66867" lon="-0.70608">
        <ele>189</ele>
        <time>2023-10-30T12:40:25Z</time>
      </trkpt>
      <trkpt lat="46.66831" lon="-0.7061">
        <ele>188</ele>
        <time>2023-10-30T12:41:13Z</time>
      </trkpt>
      <trkpt lat="46.66806" lon="-0.70563">
        <ele>186</ele>
        <time>2023-10-30T12:42:07Z</time>
      </trkpt>
      <trkpt lat="46.66758" lon="-0.7052">
        <ele>183</ele>
        <time>2023-10-30T12:43:22Z</time>
      </trkpt>
      <trkpt lat="46.66742" lon="-0.70409">
        <ele>183</ele>
        <time>2023-10-30T12:45:06Z</time>
      </trkpt>
      <trkpt lat="46.66753" lon="-0.70377">
        <ele>184</ele>
        <time>2023-10-30T12:45:39Z</time>
      </trkpt>
      <trkpt lat="46.66756" lon="-0.70347">
        <ele>184</ele>
        <time>2023-10-30T12:46:07Z</time>
      </trkpt>
      <trkpt lat="46.66736" lon="-0.70312">
        <ele>183</ele>
        <time>2023-10-30T12:46:48Z</time>
      </trkpt>
      <trkpt lat="46.66697" lon="-0.70362">
        <ele>181</ele>
        <time>2023-10-30T12:47:58Z</time>
      </trkpt>
      <trkpt lat="46.66658" lon="-0.70316">
        <ele>180</ele>
        <time>2023-10-30T12:49:05Z</time>
      </trkpt>
      <trkpt lat="46.66609" lon="-0.70286">
        <ele>178</ele>
        <time>2023-10-30T12:50:16Z</time>
      </trkpt>
      <trkpt lat="46.66516" lon="-0.70192">
        <ele>172</ele>
        <time>2023-10-30T12:52:47Z</time>
      </trkpt>
      <trkpt lat="46.66505" lon="-0.70156">
        <ele>171</ele>
        <time>2023-10-30T12:53:23Z</time>
      </trkpt>
      <trkpt lat="46.66502" lon="-0.70078">
        <ele>169</ele>
        <time>2023-10-30T12:54:34Z</time>
      </trkpt>
      <trkpt lat="46.6648" lon="-0.69954">
        <ele>162</ele>
        <time>2023-10-30T12:56:32Z</time>
      </trkpt>
      <trkpt lat="46.66462" lon="-0.69911">
        <ele>158</ele>
        <time>2023-10-30T12:57:18Z</time>
      </trkpt>
      <trkpt lat="46.6644" lon="-0.6987">
        <ele>155</ele>
        <time>2023-10-30T12:58:05Z</time>
      </trkpt>
      <trkpt lat="46.66404" lon="-0.69866">
        <ele>154</ele>
        <time>2023-10-30T12:58:54Z</time>
      </trkpt>
      <trkpt lat="46.66378" lon="-0.6978">
        <ele>154</ele>
        <time>2023-10-30T13:00:20Z</time>
      </trkpt>
      <trkpt lat="46.66413" lon="-0.69709">
        <ele>159</ele>
        <time>2023-10-30T13:01:40Z</time>
      </trkpt>
      <trkpt lat="46.6644" lon="-0.69688">
        <ele>161</ele>
        <time>2023-10-30T13:02:21Z</time>
      </trkpt>
      <trkpt lat="46.66435" lon="-0.69617">
        <ele>169</ele>
        <time>2023-10-30T13:03:26Z</time>
      </trkpt>
      <trkpt lat="46.66387" lon="-0.69527">
        <ele>173</ele>
        <time>2023-10-30T13:05:10Z</time>
      </trkpt>
      <trkpt lat="46.66346" lon="-0.69366">
        <ele>171</ele>
        <time>2023-10-30T13:07:48Z</time>
      </trkpt>
      <trkpt lat="46.66278" lon="-0.69402">
        <ele>170</ele>
        <time>2023-10-30T13:09:24Z</time>
      </trkpt>
      <trkpt lat="46.6607" lon="-0.6949">
        <ele>164</ele>
        <time>2023-10-30T13:14:13Z</time>
      </trkpt>
      <trkpt lat="46.66139" lon="-0.69714">
        <ele>154</ele>
        <time>2023-10-30T13:17:58Z</time>
      </trkpt>
      <trkpt lat="46.66013" lon="-0.69892">
        <ele>151</ele>
        <time>2023-10-30T13:21:52Z</time>
      </trkpt>
      <trkpt lat="46.65938" lon="-0.70123">
        <ele>148</ele>
        <time>2023-10-30T13:25:46Z</time>
      </trkpt>
      <trkpt lat="46.65843" lon="-0.70334">
        <ele>149</ele>
        <time>2023-10-30T13:29:37Z</time>
      </trkpt>
      <trkpt lat="46.65776" lon="-0.7054">
        <ele>144</ele>
        <time>2023-10-30T13:33:06Z</time>
      </trkpt>
      <trkpt lat="46.65698" lon="-0.70587">
        <ele>136</ele>
        <time>2023-10-30T13:34:59Z</time>
      </trkpt>
      <trkpt lat="46.65674" lon="-0.70563">
        <ele>137</ele>
        <time>2023-10-30T13:35:38Z</time>
      </trkpt>
      <trkpt lat="46.65531" lon="-0.7054">
        <ele>133</ele>
        <time>2023-10-30T13:38:50Z</time>
      </trkpt>
      <trkpt lat="46.65541" lon="-0.70583">
        <ele>132</ele>
        <time>2023-10-30T13:39:31Z</time>
      </trkpt>
      <trkpt lat="46.65485" lon="-0.70619">
        <ele>133</ele>
        <time>2023-10-30T13:40:53Z</time>
      </trkpt>
      <trkpt lat="46.65477" lon="-0.70671">
        <ele>132</ele>
        <time>2023-10-30T13:41:42Z</time>
      </trkpt>
      <trkpt lat="46.65446" lon="-0.70728">
        <ele>132</ele>
        <time>2023-10-30T13:42:48Z</time>
      </trkpt>
      <trkpt lat="46.65409" lon="-0.7075">
        <ele>133</ele>
        <time>2023-10-30T13:43:42Z</time>
      </trkpt>
      <trkpt lat="46.65329" lon="-0.70756">
        <ele>132</ele>
        <time>2023-10-30T13:45:29Z</time>
      </trkpt>
      <trkpt lat="46.65265" lon="-0.70728">
        <ele>134</ele>
        <time>2023-10-30T13:46:58Z</time>
      </trkpt>
      <trkpt lat="46.65232" lon="-0.70778">
        <ele>131</ele>
        <time>2023-10-30T13:48:01Z</time>
      </trkpt>
      <trkpt lat="46.65191" lon="-0.70859">
        <ele>128</ele>
        <time>2023-10-30T13:49:34Z</time>
      </trkpt>
      <trkpt lat="46.65148" lon="-0.7087">
        <ele>127</ele>
        <time>2023-10-30T13:50:32Z</time>
      </trkpt>
      <trkpt lat="46.65135" lon="-0.7084">
        <ele>127</ele>
        <time>2023-10-30T13:51:04Z</time>
      </trkpt>
      <trkpt lat="46.65151" lon="-0.70756">
        <ele>134</ele>
        <time>2023-10-30T13:52:24Z</time>
      </trkpt>
      <trkpt lat="46.65185" lon="-0.70728">
        <ele>136</ele>
        <time>2023-10-30T13:53:16Z</time>
      </trkpt>
      <trkpt lat="46.65158" lon="-0.7064">
        <ele>140</ele>
        <time>2023-10-30T13:54:45Z</time>
      </trkpt>
      <trkpt lat="46.65166" lon="-0.70589">
        <ele>143</ele>
        <time>2023-10-30T13:55:32Z</time>
      </trkpt>
      <trkpt lat="46.6534" lon="-0.70269">
        <ele>150</ele>
        <time>2023-10-30T14:01:46Z</time>
      </trkpt>
      <trkpt lat="46.65434" lon="-0.70203">
        <ele>146</ele>
        <time>2023-10-30T14:04:06Z</time>
      </trkpt>
      <trkpt lat="46.65409" lon="-0.6993">
        <ele>151</ele>
        <time>2023-10-30T14:08:18Z</time>
      </trkpt>
      <trkpt lat="46.65347" lon="-0.69735">
        <ele>149</ele>
        <time>2023-10-30T14:11:35Z</time>
      </trkpt>
      <trkpt lat="46.65354" lon="-0.69587">
        <ele>143</ele>
        <time>2023-10-30T14:13:51Z</time>
      </trkpt>
      <trkpt lat="46.65334" lon="-0.69477">
        <ele>140</ele>
        <time>2023-10-30T14:15:35Z</time>
      </trkpt>
      <trkpt lat="46.65359" lon="-0.69323">
        <ele>134</ele>
        <time>2023-10-30T14:18:00Z</time>
      </trkpt>
      <trkpt lat="46.65384" lon="-0.69218">
        <ele>133</ele>
        <time>2023-10-30T14:19:42Z</time>
      </trkpt>
      <trkpt lat="46.65394" lon="-0.69151">
        <ele>131</ele>
        <time>2023-10-30T14:20:44Z</time>
      </trkpt>
      <trkpt lat="46.65372" lon="-0.69025">
        <ele>129</ele>
        <time>2023-10-30T14:22:44Z</time>
      </trkpt>
      <trkpt lat="46.65381" lon="-0.68963">
        <ele>130</ele>
        <time>2023-10-30T14:23:42Z</time>
      </trkpt>
      <trkpt lat="46.65432" lon="-0.68883">
        <ele>131</ele>
        <time>2023-10-30T14:25:22Z</time>
      </trkpt>
      <trkpt lat="46.65469" lon="-0.6881">
        <ele>132</ele>
        <time>2023-10-30T14:26:45Z</time>
      </trkpt>
      <trkpt lat="46.65434" lon="-0.68623">
        <ele>137</ele>
        <time>2023-10-30T14:29:42Z</time>
      </trkpt>
      <trkpt lat="46.6544" lon="-0.68448">
        <ele>141</ele>
        <time>2023-10-30T14:32:23Z</time>
      </trkpt>
      <trkpt lat="46.65422" lon="-0.68379">
        <ele>143</ele>
        <time>2023-10-30T14:33:30Z</time>
      </trkpt>
      <trkpt lat="46.65393" lon="-0.68321">
        <ele>144</ele>
        <time>2023-10-30T14:34:36Z</time>
      </trkpt>
      <trkpt lat="46.65382" lon="-0.68267">
        <ele>146</ele>
        <time>2023-10-30T14:35:28Z</time>
      </trkpt>
      <trkpt lat="46.6545" lon="-0.68216">
        <ele>148</ele>
        <time>2023-10-30T14:37:10Z</time>
      </trkpt>
      <trkpt lat="46.65438" lon="-0.68044">
        <ele>151</ele>
        <time>2023-10-30T14:39:48Z</time>
      </trkpt>
      <trkpt lat="46.65438" lon="-0.67851">
        <ele>156</ele>
        <time>2023-10-30T14:42:45Z</time>
      </trkpt>
      <trkpt lat="46.65404" lon="-0.67716">
        <ele>157</ele>
        <time>2023-10-30T14:44:57Z</time>
      </trkpt>
      <trkpt lat="46.65485" lon="-0.67544">
        <ele>167</ele>
        <time>2023-10-30T14:48:08Z</time>
      </trkpt>
      <trkpt lat="46.6502" lon="-0.67377">
        <ele>164</ele>
        <time>2023-10-30T14:58:47Z</time>
      </trkpt>
      <trkpt lat="46.64201" lon="-0.67475">
        <ele>163</ele>
        <time>2023-10-30T15:17:03Z</time>
      </trkpt>
      <trkpt lat="46.63948" lon="-0.66802">
        <ele>170</ele>
        <time>2023-10-30T15:28:46Z</time>
      </trkpt>
      <trkpt lat="46.63188" lon="-0.66244">
        <ele>131</ele>
        <time>2023-10-30T15:47:42Z</time>
      </trkpt>
      <trkpt lat="46.62975" lon="-0.66321">
        <ele>121</ele>
        <time>2023-10-30T15:52:35Z</time>
      </trkpt>
      <trkpt lat="46.62569" lon="-0.66716">
        <ele>121</ele>
        <time>2023-10-30T16:03:27Z</time>
      </trkpt>
      <trkpt lat="46.62557" lon="-0.66502">
        <ele>117</ele>
        <time>2023-10-30T16:06:43Z</time>
      </trkpt>
      <trkpt lat="46.62681" lon="-0.66296">
        <ele>116</ele>
        <time>2023-10-30T16:10:54Z</time>
      </trkpt>
    </trkseg>
  </trk>
</gpx>